AQQ10 IFIS: Internet Flight Information System
logo dgac
Lunes 27 de Septiembre del 2021
Buscar por aerodromo o helipuerto
Ingrese nombre de aeródromo, localidad o designador OACI:
METAR del 27-09-2021 a las 00:00 UTC
Para mayor información visite www.meteochile.cl
METAR SCON 270000Z AUTO 04005KT 9999 FEW088/// 06/05 Q1025
Viento: dirección 040 grados, velocidad 5 nudos
Visibilidad: 10 km o más
Nubes: Escasa nubosidad a 8800 pies sobre el nivel del aeródromo, Tipo de nubes no disponible
Temperatura: 6 °C
Rocío: 5 °C
Humedad_relativa: 93%
Presión: 1025 hPa
METAR del 26-09-2021 a las 23:00 UTC
Para mayor información visite www.meteochile.cl
METAR SCON 262300Z AUTO 00000KT 9999 FEW027/// SCT055/// BKN074/// 08/06 Q1024
Visibilidad: 10 km o más
Nubes: Escasa nubosidad a 2700 pies sobre el nivel del aeródromo, Tipo de nubes no disponible
Nubes: Nubosidad parcial a 5500 pies sobre el nivel del aeródromo, Tipo de nubes no disponible
Nubes: Nublado a 7400 pies sobre el nivel del aeródromo, Tipo de nubes no disponible
Temperatura: 8 °C
Rocío: 6 °C
Humedad_relativa: 87%
Presión: 1024 hPa
METAR del 26-09-2021 a las 22:00 UTC
Para mayor información visite www.meteochile.cl
METAR SCON 262200Z AUTO 31005KT 9999 FEW043/// BKN100/// 09/06 Q1024
Viento: dirección 310 grados, velocidad 5 nudos
Visibilidad: 10 km o más
Nubes: Escasa nubosidad a 4300 pies sobre el nivel del aeródromo, Tipo de nubes no disponible
Nubes: Nublado a 10000 pies sobre el nivel del aeródromo, Tipo de nubes no disponible
Temperatura: 9 °C
Rocío: 6 °C
Humedad_relativa: 81%
Presión: 1024 hPa
METAR del 26-09-2021 a las 21:00 UTC
Para mayor información visite www.meteochile.cl
METAR SCON 262100Z AUTO 32008KT 300V360 9999 FEW050/// OVC068/// 10/06 Q1024
Viento: dirección 320 grados, velocidad 8 nudos
Viento con dirección variable entre 300 y 360 grados
Visibilidad: 10 km o más
Nubes: Escasa nubosidad a 5000 pies sobre el nivel del aeródromo, Tipo de nubes no disponible
Nubes: Cubierto a 6800 pies sobre el nivel del aeródromo, Tipo de nubes no disponible
Temperatura: 10 °C
Rocío: 6 °C
Humedad_relativa: 76%
Presión: 1024 hPa
METAR del 26-09-2021 a las 20:00 UTC
Para mayor información visite www.meteochile.cl
METAR SCON 262000Z AUTO 34006KT 310V010 9999 -SHRA BKN022/// BKN039/// OVC074/// 09/07 Q1025
Viento: dirección 340 grados, velocidad 6 nudos
Viento con dirección variable entre 310 y 010 grados
Visibilidad: 10 km o más
Débil ChubascosLluvia
Nubes: Nublado a 2200 pies sobre el nivel del aeródromo, Tipo de nubes no disponible
Nubes: Nublado a 3900 pies sobre el nivel del aeródromo, Tipo de nubes no disponible
Nubes: Cubierto a 7400 pies sobre el nivel del aeródromo, Tipo de nubes no disponible
Temperatura: 9 °C
Rocío: 7 °C
Humedad_relativa: 87%
Presión: 1025 hPa
METAR del 26-09-2021 a las 19:00 UTC
Para mayor información visite www.meteochile.cl
METAR SCON 261900Z AUTO 36003KT 300V060 9999 -SHRA OVC018/// 09/07 Q1025
Viento: dirección 360 grados, velocidad 3 nudos
Viento con dirección variable entre 300 y 060 grados
Visibilidad: 10 km o más
Débil ChubascosLluvia
Nubes: Cubierto a 1800 pies sobre el nivel del aeródromo, Tipo de nubes no disponible
Temperatura: 9 °C
Rocío: 7 °C
Humedad_relativa: 87%
Presión: 1025 hPa
METAR del 26-09-2021 a las 18:00 UTC
Para mayor información visite www.meteochile.cl
METAR SCON 261800Z AUTO 06006KT 020V080 9999 -SHRA FEW015/// BKN018/// OVC040/// 08/06 Q1025
Viento: dirección 060 grados, velocidad 6 nudos
Viento con dirección variable entre 020 y 080 grados
Visibilidad: 10 km o más
Débil ChubascosLluvia
Nubes: Escasa nubosidad a 1500 pies sobre el nivel del aeródromo, Tipo de nubes no disponible
Nubes: Nublado a 1800 pies sobre el nivel del aeródromo, Tipo de nubes no disponible
Nubes: Cubierto a 4000 pies sobre el nivel del aeródromo, Tipo de nubes no disponible
Temperatura: 8 °C
Rocío: 6 °C
Humedad_relativa: 87%
Presión: 1025 hPa
METAR del 26-09-2021 a las 17:00 UTC
Para mayor información visite www.meteochile.cl
METAR SCON 261700Z AUTO VRB02KT 9999 -SHRA BKN034/// OVC049/// 08/05 Q1025
Viento: dirección variable, velocidad 2 nudos
Visibilidad: 10 km o más
Débil ChubascosLluvia
Nubes: Nublado a 3400 pies sobre el nivel del aeródromo, Tipo de nubes no disponible
Nubes: Cubierto a 4900 pies sobre el nivel del aeródromo, Tipo de nubes no disponible
Temperatura: 8 °C
Rocío: 5 °C
Humedad_relativa: 81%
Presión: 1025 hPa
SPECI del 26-09-2021 a las 16:35 UTC
Para mayor información visite www.meteochile.cl
SPECI SCON 261635Z AUTO 00000KT 9999 -SHRA FEW019/// BKN033/// OVC049/// 08/06 Q1025
Visibilidad: 10 km o más
Débil ChubascosLluvia
Nubes: Escasa nubosidad a 1900 pies sobre el nivel del aeródromo, Tipo de nubes no disponible
Nubes: Nublado a 3300 pies sobre el nivel del aeródromo, Tipo de nubes no disponible
Nubes: Cubierto a 4900 pies sobre el nivel del aeródromo, Tipo de nubes no disponible
Temperatura: 8 °C
Rocío: 6 °C
Humedad_relativa: 87%
Presión: 1025 hPa
SPECI del 26-09-2021 a las 16:35 UTC
Para mayor información visite www.meteochile.cl
SPECI SCON 261635Z AUTO 00000KT 9999 -SHRA FEW019/// BKN033/// OVC049/// 08/06 Q1025
Visibilidad: 10 km o más
Débil ChubascosLluvia
Nubes: Escasa nubosidad a 1900 pies sobre el nivel del aeródromo, Tipo de nubes no disponible
Nubes: Nublado a 3300 pies sobre el nivel del aeródromo, Tipo de nubes no disponible
Nubes: Cubierto a 4900 pies sobre el nivel del aeródromo, Tipo de nubes no disponible
Temperatura: 8 °C
Rocío: 6 °C
Humedad_relativa: 87%
Presión: 1025 hPa